sensor_id;sensor_type;location;lat;lon;timestamp;P1;durP1;ratioP1;P2;durP2;ratioP2
14306;SDS011;7237;49.500;11.400;2023-06-22T00:02:02;9.40;;;6.50;;
14306;SDS011;7237;49.500;11.400;2023-06-22T00:04:29;8.70;;;6.03;;
14306;SDS011;7237;49.500;11.400;2023-06-22T00:06:56;7.78;;;6.57;;
14306;SDS011;7237;49.500;11.400;2023-06-22T00:09:23;7.10;;;6.18;;
14306;SDS011;7237;49.500;11.400;2023-06-22T00:11:50;7.88;;;6.10;;
14306;SDS011;7237;49.500;11.400;2023-06-22T00:14:17;8.70;;;7.03;;
14306;SDS011;7237;49.500;11.400;2023-06-22T00:16:44;10.32;;;7.47;;
14306;SDS011;7237;49.500;11.400;2023-06-22T00:19:15;10.73;;;6.65;;
14306;SDS011;7237;49.500;11.400;2023-06-22T00:21:44;7.90;;;6.70;;
14306;SDS011;7237;49.500;11.400;2023-06-22T00:24:12;7.47;;;6.70;;
14306;SDS011;7237;49.500;11.400;2023-06-22T00:26:39;10.88;;;6.97;;
14306;SDS011;7237;49.500;11.400;2023-06-22T00:29:06;8.93;;;6.63;;
14306;SDS011;7237;49.500;11.400;2023-06-22T00:31:33;8.02;;;6.80;;
14306;SDS011;7237;49.500;11.400;2023-06-22T00:34:00;7.35;;;6.57;;
14306;SDS011;7237;49.500;11.400;2023-06-22T00:36:28;7.45;;;6.75;;
14306;SDS011;7237;49.500;11.400;2023-06-22T00:38:55;8.30;;;7.13;;
14306;SDS011;7237;49.500;11.400;2023-06-22T00:41:22;10.55;;;7.03;;
14306;SDS011;7237;49.500;11.400;2023-06-22T00:43:53;9.07;;;7.03;;
14306;SDS011;7237;49.500;11.400;2023-06-22T00:46:20;7.63;;;6.93;;
14306;SDS011;7237;49.500;11.400;2023-06-22T00:48:48;7.80;;;6.88;;
14306;SDS011;7237;49.500;11.400;2023-06-22T00:51:15;7.68;;;6.55;;
14306;SDS011;7237;49.500;11.400;2023-06-22T00:53:44;7.93;;;6.00;;
14306;SDS011;7237;49.500;11.400;2023-06-22T00:56:11;6.53;;;5.93;;
14306;SDS011;7237;49.500;11.400;2023-06-22T00:58:38;7.93;;;5.90;;
14306;SDS011;7237;49.500;11.400;2023-06-22T01:01:06;10.38;;;7.45;;
14306;SDS011;7237;49.500;11.400;2023-06-22T01:03:33;9.50;;;6.82;;
14306;SDS011;7237;49.500;11.400;2023-06-22T01:06:02;9.77;;;7.28;;
14306;SDS011;7237;49.500;11.400;2023-06-22T01:08:35;7.82;;;7.13;;
14306;SDS011;7237;49.500;11.400;2023-06-22T01:11:08;7.78;;;7.03;;
14306;SDS011;7237;49.500;11.400;2023-06-22T01:13:39;10.25;;;7.10;;
14306;SDS011;7237;49.500;11.400;2023-06-22T01:16:09;7.53;;;6.72;;
14306;SDS011;7237;49.500;11.400;2023-06-22T01:18:37;9.55;;;7.22;;
14306;SDS011;7237;49.500;11.400;2023-06-22T01:21:07;7.03;;;6.32;;
14306;SDS011;7237;49.500;11.400;2023-06-22T01:23:39;8.25;;;6.95;;
14306;SDS011;7237;49.500;11.400;2023-06-22T01:26:12;9.27;;;5.72;;
14306;SDS011;7237;49.500;11.400;2023-06-22T01:28:47;7.30;;;6.57;;
14306;SDS011;7237;49.500;11.400;2023-06-22T01:31:16;7.90;;;6.68;;
14306;SDS011;7237;49.500;11.400;2023-06-22T01:33:43;7.63;;;6.93;;
14306;SDS011;7237;49.500;11.400;2023-06-22T01:36:11;9.45;;;6.72;;
14306;SDS011;7237;49.500;11.400;2023-06-22T01:38:39;11.10;;;6.57;;
14306;SDS011;7237;49.500;11.400;2023-06-22T01:41:06;9.55;;;7.07;;
14306;SDS011;7237;49.500;11.400;2023-06-22T01:43:33;8.65;;;7.13;;
14306;SDS011;7237;49.500;11.400;2023-06-22T01:46:02;7.90;;;6.70;;
14306;SDS011;7237;49.500;11.400;2023-06-22T01:48:30;9.95;;;6.22;;
14306;SDS011;7237;49.500;11.400;2023-06-22T01:50:57;7.72;;;6.63;;
14306;SDS011;7237;49.500;11.400;2023-06-22T01:53:24;11.77;;;6.63;;
14306;SDS011;7237;49.500;11.400;2023-06-22T01:55:52;7.28;;;6.32;;
14306;SDS011;7237;49.500;11.400;2023-06-22T01:58:19;12.40;;;7.45;;
14306;SDS011;7237;49.500;11.400;2023-06-22T02:00:48;7.45;;;6.75;;
14306;SDS011;7237;49.500;11.400;2023-06-22T02:03:18;10.02;;;6.50;;
14306;SDS011;7237;49.500;11.400;2023-06-22T02:05:48;7.43;;;6.63;;
14306;SDS011;7237;49.500;11.400;2023-06-22T02:08:17;8.40;;;7.15;;
14306;SDS011;7237;49.500;11.400;2023-06-22T02:10:46;7.47;;;6.78;;
14306;SDS011;7237;49.500;11.400;2023-06-22T02:13:13;8.13;;;6.47;;
14306;SDS011;7237;49.500;11.400;2023-06-22T02:15:41;11.00;;;7.15;;
14306;SDS011;7237;49.500;11.400;2023-06-22T02:18:08;8.23;;;7.38;;
14306;SDS011;7237;49.500;11.400;2023-06-22T02:20:37;7.70;;;6.93;;
14306;SDS011;7237;49.500;11.400;2023-06-22T02:23:05;12.15;;;8.00;;
14306;SDS011;7237;49.500;11.400;2023-06-22T02:25:32;7.97;;;7.18;;
14306;SDS011;7237;49.500;11.400;2023-06-22T02:27:59;9.98;;;7.80;;
14306;SDS011;7237;49.500;11.400;2023-06-22T02:30:26;8.90;;;7.95;;
14306;SDS011;7237;49.500;11.400;2023-06-22T02:32:53;10.60;;;8.10;;
14306;SDS011;7237;49.500;11.400;2023-06-22T02:35:23;12.13;;;8.18;;
14306;SDS011;7237;49.500;11.400;2023-06-22T02:37:52;10.70;;;8.32;;
14306;SDS011;7237;49.500;11.400;2023-06-22T02:40:19;10.05;;;8.15;;
14306;SDS011;7237;49.500;11.400;2023-06-22T02:42:46;10.20;;;8.40;;
14306;SDS011;7237;49.500;11.400;2023-06-22T02:45:13;10.07;;;8.90;;
14306;SDS011;7237;49.500;11.400;2023-06-22T02:47:40;10.50;;;8.50;;
14306;SDS011;7237;49.500;11.400;2023-06-22T02:50:08;11.27;;;8.85;;
14306;SDS011;7237;49.500;11.400;2023-06-22T02:52:35;9.48;;;8.48;;
14306;SDS011;7237;49.500;11.400;2023-06-22T02:55:06;11.20;;;9.02;;
14306;SDS011;7237;49.500;11.400;2023-06-22T02:57:33;12.40;;;8.80;;
14306;SDS011;7237;49.500;11.400;2023-06-22T03:00:02;13.20;;;10.18;;
14306;SDS011;7237;49.500;11.400;2023-06-22T03:02:29;13.07;;;8.45;;
14306;SDS011;7237;49.500;11.400;2023-06-22T03:04:56;10.02;;;8.65;;
14306;SDS011;7237;49.500;11.400;2023-06-22T03:07:26;13.73;;;9.40;;
14306;SDS011;7237;49.500;11.400;2023-06-22T03:09:55;12.60;;;9.00;;
14306;SDS011;7237;49.500;11.400;2023-06-22T03:12:23;14.27;;;8.63;;
14306;SDS011;7237;49.500;11.400;2023-06-22T03:14:50;11.13;;;8.65;;
14306;SDS011;7237;49.500;11.400;2023-06-22T03:17:17;9.40;;;8.05;;
14306;SDS011;7237;49.500;11.400;2023-06-22T03:19:44;10.50;;;8.07;;
14306;SDS011;7237;49.500;11.400;2023-06-22T03:22:12;9.85;;;8.15;;
14306;SDS011;7237;49.500;11.400;2023-06-22T03:24:40;12.45;;;8.20;;
14306;SDS011;7237;49.500;11.400;2023-06-22T03:27:07;8.50;;;7.60;;
14306;SDS011;7237;49.500;11.400;2023-06-22T03:29:35;9.05;;;7.97;;
14306;SDS011;7237;49.500;11.400;2023-06-22T03:32:02;8.80;;;7.90;;
14306;SDS011;7237;49.500;11.400;2023-06-22T03:34:31;8.68;;;7.78;;
14306;SDS011;7237;49.500;11.400;2023-06-22T03:36:59;8.45;;;7.57;;
14306;SDS011;7237;49.500;11.400;2023-06-22T03:39:26;8.60;;;7.70;;
14306;SDS011;7237;49.500;11.400;2023-06-22T03:41:53;8.82;;;7.72;;
14306;SDS011;7237;49.500;11.400;2023-06-22T03:44:20;13.20;;;8.15;;
14306;SDS011;7237;49.500;11.400;2023-06-22T03:46:49;8.10;;;7.30;;
14306;SDS011;7237;49.500;11.400;2023-06-22T03:49:16;8.25;;;7.53;;
14306;SDS011;7237;49.500;11.400;2023-06-22T03:51:43;8.38;;;7.38;;
14306;SDS011;7237;49.500;11.400;2023-06-22T03:54:10;8.68;;;7.05;;
14306;SDS011;7237;49.500;11.400;2023-06-22T03:56:37;9.93;;;7.30;;
14306;SDS011;7237;49.500;11.400;2023-06-22T03:59:04;7.85;;;7.05;;
14306;SDS011;7237;49.500;11.400;2023-06-22T04:01:31;8.77;;;7.30;;
14306;SDS011;7237;49.500;11.400;2023-06-22T04:03:59;7.30;;;6.70;;
14306;SDS011;7237;49.500;11.400;2023-06-22T04:06:26;9.20;;;7.68;;
14306;SDS011;7237;49.500;11.400;2023-06-22T04:08:53;14.63;;;7.32;;
14306;SDS011;7237;49.500;11.400;2023-06-22T04:11:20;8.55;;;6.97;;
14306;SDS011;7237;49.500;11.400;2023-06-22T04:13:47;8.38;;;7.18;;
14306;SDS011;7237;49.500;11.400;2023-06-22T04:16:16;9.45;;;7.22;;
14306;SDS011;7237;49.500;11.400;2023-06-22T04:18:43;10.43;;;8.00;;
14306;SDS011;7237;49.500;11.400;2023-06-22T04:21:12;9.18;;;7.32;;
14306;SDS011;7237;49.500;11.400;2023-06-22T04:23:40;11.38;;;7.50;;
14306;SDS011;7237;49.500;11.400;2023-06-22T04:26:08;9.63;;;7.47;;
14306;SDS011;7237;49.500;11.400;2023-06-22T04:28:35;8.52;;;6.72;;
14306;SDS011;7237;49.500;11.400;2023-06-22T04:31:02;10.52;;;7.90;;
14306;SDS011;7237;49.500;11.400;2023-06-22T04:33:29;11.23;;;7.20;;
14306;SDS011;7237;49.500;11.400;2023-06-22T04:35:57;10.25;;;7.47;;
14306;SDS011;7237;49.500;11.400;2023-06-22T04:38:27;8.80;;;7.35;;
14306;SDS011;7237;49.500;11.400;2023-06-22T04:40:58;11.00;;;6.82;;
14306;SDS011;7237;49.500;11.400;2023-06-22T04:43:26;7.80;;;6.97;;
14306;SDS011;7237;49.500;11.400;2023-06-22T04:45:55;10.88;;;7.60;;
14306;SDS011;7237;49.500;11.400;2023-06-22T04:48:28;7.25;;;6.47;;
14306;SDS011;7237;49.500;11.400;2023-06-22T04:50:57;7.80;;;6.45;;
14306;SDS011;7237;49.500;11.400;2023-06-22T04:53:29;9.02;;;6.78;;
14306;SDS011;7237;49.500;11.400;2023-06-22T04:55:56;10.60;;;7.68;;
14306;SDS011;7237;49.500;11.400;2023-06-22T04:58:23;7.32;;;6.70;;
14306;SDS011;7237;49.500;11.400;2023-06-22T05:00:52;9.50;;;7.57;;
14306;SDS011;7237;49.500;11.400;2023-06-22T05:03:21;7.32;;;6.63;;
14306;SDS011;7237;49.500;11.400;2023-06-22T05:05:50;7.95;;;6.60;;
14306;SDS011;7237;49.500;11.400;2023-06-22T05:08:18;7.57;;;6.85;;
14306;SDS011;7237;49.500;11.400;2023-06-22T05:10:47;8.27;;;6.95;;
14306;SDS011;7237;49.500;11.400;2023-06-22T05:13:14;9.65;;;7.10;;
14306;SDS011;7237;49.500;11.400;2023-06-22T05:15:41;8.85;;;6.57;;
14306;SDS011;7237;49.500;11.400;2023-06-22T05:18:09;7.57;;;6.75;;
14306;SDS011;7237;49.500;11.400;2023-06-22T05:20:36;6.78;;;6.07;;
14306;SDS011;7237;49.500;11.400;2023-06-22T05:23:03;9.25;;;6.13;;
14306;SDS011;7237;49.500;11.400;2023-06-22T05:25:30;6.68;;;5.93;;
14306;SDS011;7237;49.500;11.400;2023-06-22T05:27:59;11.00;;;6.65;;
14306;SDS011;7237;49.500;11.400;2023-06-22T05:30:35;7.03;;;6.32;;
14306;SDS011;7237;49.500;11.400;2023-06-22T05:33:02;7.25;;;6.35;;
14306;SDS011;7237;49.500;11.400;2023-06-22T05:35:29;6.55;;;5.95;;
14306;SDS011;7237;49.500;11.400;2023-06-22T05:37:56;6.68;;;5.97;;
14306;SDS011;7237;49.500;11.400;2023-06-22T05:40:23;7.50;;;5.65;;
14306;SDS011;7237;49.500;11.400;2023-06-22T05:42:52;9.05;;;6.13;;
14306;SDS011;7237;49.500;11.400;2023-06-22T05:45:20;6.95;;;6.25;;
14306;SDS011;7237;49.500;11.400;2023-06-22T05:47:47;9.68;;;6.25;;
14306;SDS011;7237;49.500;11.400;2023-06-22T05:50:14;6.40;;;5.88;;
14306;SDS011;7237;49.500;11.400;2023-06-22T05:52:41;7.32;;;6.45;;
14306;SDS011;7237;49.500;11.400;2023-06-22T05:55:09;7.55;;;6.03;;
14306;SDS011;7237;49.500;11.400;2023-06-22T05:57:36;6.95;;;6.28;;
14306;SDS011;7237;49.500;11.400;2023-06-22T06:00:03;6.95;;;5.70;;
14306;SDS011;7237;49.500;11.400;2023-06-22T06:02:33;8.48;;;6.50;;
14306;SDS011;7237;49.500;11.400;2023-06-22T06:05:00;6.22;;;5.63;;
14306;SDS011;7237;49.500;11.400;2023-06-22T06:07:28;6.13;;;5.63;;
14306;SDS011;7237;49.500;11.400;2023-06-22T06:09:55;6.00;;;5.40;;
14306;SDS011;7237;49.500;11.400;2023-06-22T06:12:22;7.03;;;6.32;;
14306;SDS011;7237;49.500;11.400;2023-06-22T06:14:49;8.30;;;5.95;;
14306;SDS011;7237;49.500;11.400;2023-06-22T06:17:18;8.85;;;6.00;;
14306;SDS011;7237;49.500;11.400;2023-06-22T06:19:46;7.55;;;6.30;;
14306;SDS011;7237;49.500;11.400;2023-06-22T06:22:13;7.72;;;5.80;;
14306;SDS011;7237;49.500;11.400;2023-06-22T06:24:41;7.90;;;6.18;;
14306;SDS011;7237;49.500;11.400;2023-06-22T06:27:08;7.97;;;6.32;;
14306;SDS011;7237;49.500;11.400;2023-06-22T06:29:35;7.22;;;6.32;;
14306;SDS011;7237;49.500;11.400;2023-06-22T06:32:02;6.97;;;6.15;;
14306;SDS011;7237;49.500;11.400;2023-06-22T06:34:29;9.35;;;6.38;;
14306;SDS011;7237;49.500;11.400;2023-06-22T06:36:57;6.85;;;6.22;;
14306;SDS011;7237;49.500;11.400;2023-06-22T06:39:25;8.63;;;6.38;;
14306;SDS011;7237;49.500;11.400;2023-06-22T06:41:52;8.45;;;6.47;;
14306;SDS011;7237;49.500;11.400;2023-06-22T06:44:19;9.50;;;7.00;;
14306;SDS011;7237;49.500;11.400;2023-06-22T06:46:46;7.28;;;6.65;;
14306;SDS011;7237;49.500;11.400;2023-06-22T06:49:13;6.95;;;6.25;;
14306;SDS011;7237;49.500;11.400;2023-06-22T06:51:40;7.50;;;6.70;;
14306;SDS011;7237;49.500;11.400;2023-06-22T06:54:08;6.72;;;6.03;;
14306;SDS011;7237;49.500;11.400;2023-06-22T06:56:35;7.75;;;6.45;;
14306;SDS011;7237;49.500;11.400;2023-06-22T06:59:03;7.38;;;6.45;;
14306;SDS011;7237;49.500;11.400;2023-06-22T07:01:30;7.47;;;6.78;;
14306;SDS011;7237;49.500;11.400;2023-06-22T07:03:58;6.50;;;5.90;;
14306;SDS011;7237;49.500;11.400;2023-06-22T07:06:26;7.63;;;6.50;;
14306;SDS011;7237;49.500;11.400;2023-06-22T07:08:57;6.53;;;5.93;;
14306;SDS011;7237;49.500;11.400;2023-06-22T07:11:25;8.40;;;6.10;;
14306;SDS011;7237;49.500;11.400;2023-06-22T07:13:52;8.77;;;6.28;;
14306;SDS011;7237;49.500;11.400;2023-06-22T07:16:19;6.88;;;5.93;;
14306;SDS011;7237;49.500;11.400;2023-06-22T07:18:46;6.85;;;5.40;;
14306;SDS011;7237;49.500;11.400;2023-06-22T07:21:13;8.77;;;5.82;;
14306;SDS011;7237;49.500;11.400;2023-06-22T07:23:40;9.23;;;6.15;;
14306;SDS011;7237;49.500;11.400;2023-06-22T07:26:07;9.82;;;6.05;;
14306;SDS011;7237;49.500;11.400;2023-06-22T07:28:36;8.98;;;6.10;;
14306;SDS011;7237;49.500;11.400;2023-06-22T07:31:03;9.35;;;6.10;;
14306;SDS011;7237;49.500;11.400;2023-06-22T07:33:30;7.70;;;6.30;;
14306;SDS011;7237;49.500;11.400;2023-06-22T07:35:57;7.07;;;5.72;;
14306;SDS011;7237;49.500;11.400;2023-06-22T07:38:24;9.63;;;6.03;;
14306;SDS011;7237;49.500;11.400;2023-06-22T07:40:51;6.53;;;5.85;;
14306;SDS011;7237;49.500;11.400;2023-06-22T07:43:18;7.53;;;5.82;;
14306;SDS011;7237;49.500;11.400;2023-06-22T07:45:49;6.50;;;5.90;;
14306;SDS011;7237;49.500;11.400;2023-06-22T07:48:19;7.93;;;6.15;;
14306;SDS011;7237;49.500;11.400;2023-06-22T07:50:47;7.68;;;6.20;;
14306;SDS011;7237;49.500;11.400;2023-06-22T07:53:14;8.68;;;5.85;;
14306;SDS011;7237;49.500;11.400;2023-06-22T07:55:41;9.68;;;6.22;;
14306;SDS011;7237;49.500;11.400;2023-06-22T07:58:08;8.10;;;5.78;;
14306;SDS011;7237;49.500;11.400;2023-06-22T08:00:35;7.57;;;5.97;;
14306;SDS011;7237;49.500;11.400;2023-06-22T08:03:03;7.18;;;5.35;;
14306;SDS011;7237;49.500;11.400;2023-06-22T08:05:31;7.90;;;5.45;;
14306;SDS011;7237;49.500;11.400;2023-06-22T08:07:58;6.78;;;5.22;;
14306;SDS011;7237;49.500;11.400;2023-06-22T08:10:25;8.25;;;5.68;;
14306;SDS011;7237;49.500;11.400;2023-06-22T08:12:52;8.38;;;5.85;;
14306;SDS011;7237;49.500;11.400;2023-06-22T08:15:19;7.90;;;5.47;;
14306;SDS011;7237;49.500;11.400;2023-06-22T08:17:47;7.53;;;5.47;;
14306;SDS011;7237;49.500;11.400;2023-06-22T08:20:15;6.18;;;5.30;;
14306;SDS011;7237;49.500;11.400;2023-06-22T08:22:42;8.35;;;5.55;;
14306;SDS011;7237;49.500;11.400;2023-06-22T08:25:10;6.03;;;5.43;;
14306;SDS011;7237;49.500;11.400;2023-06-22T08:27:38;10.18;;;5.63;;
14306;SDS011;7237;49.500;11.400;2023-06-22T08:30:05;11.30;;;5.55;;
14306;SDS011;7237;49.500;11.400;2023-06-22T08:32:33;6.00;;;5.15;;
14306;SDS011;7237;49.500;11.400;2023-06-22T08:35:00;5.45;;;4.43;;
14306;SDS011;7237;49.500;11.400;2023-06-22T08:37:28;8.07;;;4.70;;
14306;SDS011;7237;49.500;11.400;2023-06-22T08:39:56;4.88;;;4.22;;
14306;SDS011;7237;49.500;11.400;2023-06-22T08:42:23;5.35;;;4.13;;
14306;SDS011;7237;49.500;11.400;2023-06-22T08:44:51;5.93;;;4.80;;
14306;SDS011;7237;49.500;11.400;2023-06-22T08:47:18;5.93;;;4.43;;
14306;SDS011;7237;49.500;11.400;2023-06-22T08:49:46;8.40;;;4.28;;
14306;SDS011;7237;49.500;11.400;2023-06-22T08:52:13;7.90;;;4.88;;
14306;SDS011;7237;49.500;11.400;2023-06-22T08:54:41;5.03;;;4.50;;
14306;SDS011;7237;49.500;11.400;2023-06-22T08:57:08;5.45;;;4.10;;
14306;SDS011;7237;49.500;11.400;2023-06-22T08:59:35;7.47;;;4.63;;
14306;SDS011;7237;49.500;11.400;2023-06-22T09:02:03;4.70;;;4.20;;
14306;SDS011;7237;49.500;11.400;2023-06-22T09:04:30;8.65;;;5.03;;
14306;SDS011;7237;49.500;11.400;2023-06-22T09:06:59;6.72;;;4.85;;
14306;SDS011;7237;49.500;11.400;2023-06-22T09:09:26;10.65;;;4.50;;
14306;SDS011;7237;49.500;11.400;2023-06-22T09:11:55;9.57;;;4.95;;
14306;SDS011;7237;49.500;11.400;2023-06-22T09:14:22;8.68;;;4.47;;
14306;SDS011;7237;49.500;11.400;2023-06-22T09:16:49;5.60;;;4.18;;
14306;SDS011;7237;49.500;11.400;2023-06-22T09:19:16;5.88;;;5.00;;
14306;SDS011;7237;49.500;11.400;2023-06-22T09:21:43;5.97;;;4.35;;
14306;SDS011;7237;49.500;11.400;2023-06-22T09:24:10;7.93;;;4.57;;
14306;SDS011;7237;49.500;11.400;2023-06-22T09:26:37;9.15;;;4.50;;
14306;SDS011;7237;49.500;11.400;2023-06-22T09:29:05;8.90;;;4.65;;
14306;SDS011;7237;49.500;11.400;2023-06-22T09:31:32;5.97;;;4.78;;
14306;SDS011;7237;49.500;11.400;2023-06-22T09:33:59;7.28;;;4.65;;
14306;SDS011;7237;49.500;11.400;2023-06-22T09:36:26;8.30;;;4.95;;
14306;SDS011;7237;49.500;11.400;2023-06-22T09:38:54;4.47;;;4.07;;
14306;SDS011;7237;49.500;11.400;2023-06-22T09:41:23;6.47;;;4.93;;
14306;SDS011;7237;49.500;11.400;2023-06-22T09:43:50;6.65;;;4.43;;
14306;SDS011;7237;49.500;11.400;2023-06-22T09:46:19;8.02;;;5.15;;
14306;SDS011;7237;49.500;11.400;2023-06-22T09:48:50;8.93;;;4.38;;
14306;SDS011;7237;49.500;11.400;2023-06-22T09:51:17;10.38;;;4.93;;
14306;SDS011;7237;49.500;11.400;2023-06-22T09:53:45;9.52;;;4.80;;
14306;SDS011;7237;49.500;11.400;2023-06-22T09:56:12;6.60;;;4.32;;
14306;SDS011;7237;49.500;11.400;2023-06-22T09:58:40;5.78;;;4.53;;
14306;SDS011;7237;49.500;11.400;2023-06-22T10:01:07;6.55;;;3.63;;
14306;SDS011;7237;49.500;11.400;2023-06-22T10:03:36;7.85;;;4.20;;
14306;SDS011;7237;49.500;11.400;2023-06-22T10:06:03;7.15;;;4.28;;
14306;SDS011;7237;49.500;11.400;2023-06-22T10:08:30;6.07;;;3.85;;
14306;SDS011;7237;49.500;11.400;2023-06-22T10:10:57;8.82;;;4.72;;
14306;SDS011;7237;49.500;11.400;2023-06-22T10:13:24;10.30;;;4.20;;
14306;SDS011;7237;49.500;11.400;2023-06-22T10:15:52;7.30;;;4.22;;
14306;SDS011;7237;49.500;11.400;2023-06-22T10:18:19;7.18;;;3.78;;
14306;SDS011;7237;49.500;11.400;2023-06-22T10:20:48;8.30;;;4.18;;
14306;SDS011;7237;49.500;11.400;2023-06-22T10:23:16;9.38;;;4.18;;
14306;SDS011;7237;49.500;11.400;2023-06-22T10:25:43;8.05;;;4.40;;
14306;SDS011;7237;49.500;11.400;2023-06-22T10:28:10;9.27;;;4.43;;
14306;SDS011;7237;49.500;11.400;2023-06-22T10:30:37;8.35;;;4.25;;
14306;SDS011;7237;49.500;11.400;2023-06-22T10:33:06;7.20;;;4.03;;
14306;SDS011;7237;49.500;11.400;2023-06-22T10:35:33;7.72;;;3.53;;
14306;SDS011;7237;49.500;11.400;2023-06-22T10:38:01;11.95;;;4.00;;
14306;SDS011;7237;49.500;11.400;2023-06-22T10:40:28;7.97;;;4.15;;
14306;SDS011;7237;49.500;11.400;2023-06-22T10:42:55;8.82;;;4.70;;
14306;SDS011;7237;49.500;11.400;2023-06-22T10:45:23;9.30;;;4.30;;
14306;SDS011;7237;49.500;11.400;2023-06-22T10:47:50;7.03;;;4.40;;
14306;SDS011;7237;49.500;11.400;2023-06-22T10:50:17;6.82;;;4.07;;
14306;SDS011;7237;49.500;11.400;2023-06-22T10:52:45;5.80;;;4.35;;
14306;SDS011;7237;49.500;11.400;2023-06-22T10:55:13;12.15;;;5.10;;
14306;SDS011;7237;49.500;11.400;2023-06-22T10:57:40;9.50;;;4.13;;
14306;SDS011;7237;49.500;11.400;2023-06-22T11:00:09;8.52;;;4.55;;
14306;SDS011;7237;49.500;11.400;2023-06-22T11:02:36;8.27;;;4.57;;
14306;SDS011;7237;49.500;11.400;2023-06-22T11:05:04;10.55;;;4.78;;
14306;SDS011;7237;49.500;11.400;2023-06-22T11:07:31;5.95;;;3.83;;
14306;SDS011;7237;49.500;11.400;2023-06-22T11:09:58;8.57;;;4.45;;
14306;SDS011;7237;49.500;11.400;2023-06-22T11:12:26;7.97;;;4.10;;
14306;SDS011;7237;49.500;11.400;2023-06-22T11:14:53;5.85;;;4.07;;
14306;SDS011;7237;49.500;11.400;2023-06-22T11:17:22;9.45;;;4.50;;
14306;SDS011;7237;49.500;11.400;2023-06-22T11:19:49;7.03;;;3.97;;
14306;SDS011;7237;49.500;11.400;2023-06-22T11:22:16;10.90;;;4.15;;
14306;SDS011;7237;49.500;11.400;2023-06-22T11:24:43;7.88;;;4.47;;
14306;SDS011;7237;49.500;11.400;2023-06-22T11:27:10;7.78;;;4.10;;
14306;SDS011;7237;49.500;11.400;2023-06-22T11:29:38;7.20;;;4.00;;
14306;SDS011;7237;49.500;11.400;2023-06-22T11:32:06;8.57;;;4.50;;
14306;SDS011;7237;49.500;11.400;2023-06-22T11:34:33;11.18;;;4.57;;
14306;SDS011;7237;49.500;11.400;2023-06-22T11:37:00;5.68;;;4.57;;
14306;SDS011;7237;49.500;11.400;2023-06-22T11:39:27;7.55;;;4.45;;
14306;SDS011;7237;49.500;11.400;2023-06-22T11:41:54;7.38;;;4.65;;
14306;SDS011;7237;49.500;11.400;2023-06-22T11:44:21;6.47;;;4.40;;
14306;SDS011;7237;49.500;11.400;2023-06-22T11:46:50;7.60;;;4.63;;
14306;SDS011;7237;49.500;11.400;2023-06-22T11:49:18;11.63;;;4.38;;
14306;SDS011;7237;49.500;11.400;2023-06-22T11:51:45;11.38;;;4.68;;
14306;SDS011;7237;49.500;11.400;2023-06-22T11:54:12;10.77;;;4.60;;
14306;SDS011;7237;49.500;11.400;2023-06-22T11:56:39;10.15;;;4.63;;
14306;SDS011;7237;49.500;11.400;2023-06-22T11:59:06;8.40;;;4.68;;
14306;SDS011;7237;49.500;11.400;2023-06-22T12:01:33;5.88;;;4.40;;
14306;SDS011;7237;49.500;11.400;2023-06-22T12:04:02;9.27;;;4.15;;
14306;SDS011;7237;49.500;11.400;2023-06-22T12:06:30;8.77;;;4.30;;
14306;SDS011;7237;49.500;11.400;2023-06-22T12:08:58;8.25;;;4.13;;
14306;SDS011;7237;49.500;11.400;2023-06-22T12:11:25;9.77;;;4.40;;
14306;SDS011;7237;49.500;11.400;2023-06-22T12:13:52;8.60;;;4.70;;
14306;SDS011;7237;49.500;11.400;2023-06-22T12:16:19;10.63;;;4.90;;
14306;SDS011;7237;49.500;11.400;2023-06-22T12:18:46;8.15;;;4.70;;
14306;SDS011;7237;49.500;11.400;2023-06-22T12:21:15;7.78;;;4.20;;
14306;SDS011;7237;49.500;11.400;2023-06-22T12:23:42;10.57;;;5.05;;
14306;SDS011;7237;49.500;11.400;2023-06-22T12:26:09;11.07;;;4.18;;
14306;SDS011;7237;49.500;11.400;2023-06-22T12:28:36;7.35;;;4.40;;
14306;SDS011;7237;49.500;11.400;2023-06-22T12:31:03;10.93;;;4.72;;
14306;SDS011;7237;49.500;11.400;2023-06-22T12:33:30;8.02;;;4.38;;
14306;SDS011;7237;49.500;11.400;2023-06-22T12:35:58;9.10;;;5.20;;
14306;SDS011;7237;49.500;11.400;2023-06-22T12:38:26;10.93;;;4.15;;
14306;SDS011;7237;49.500;11.400;2023-06-22T12:40:53;12.27;;;4.13;;
14306;SDS011;7237;49.500;11.400;2023-06-22T12:43:20;11.85;;;4.97;;
14306;SDS011;7237;49.500;11.400;2023-06-22T12:45:47;9.18;;;4.65;;
14306;SDS011;7237;49.500;11.400;2023-06-22T12:48:14;12.13;;;4.72;;
14306;SDS011;7237;49.500;11.400;2023-06-22T12:50:42;9.63;;;4.55;;
14306;SDS011;7237;49.500;11.400;2023-06-22T12:53:09;10.52;;;4.72;;
14306;SDS011;7237;49.500;11.400;2023-06-22T12:55:37;9.05;;;4.38;;
14306;SDS011;7237;49.500;11.400;2023-06-22T12:58:04;10.85;;;4.40;;
14306;SDS011;7237;49.500;11.400;2023-06-22T13:00:31;7.05;;;4.35;;
14306;SDS011;7237;49.500;11.400;2023-06-22T13:02:58;10.57;;;4.90;;
14306;SDS011;7237;49.500;11.400;2023-06-22T13:05:25;10.25;;;4.82;;
14306;SDS011;7237;49.500;11.400;2023-06-22T13:07:52;11.43;;;4.20;;
14306;SDS011;7237;49.500;11.400;2023-06-22T13:10:19;8.77;;;4.10;;
14306;SDS011;7237;49.500;11.400;2023-06-22T13:12:48;8.20;;;4.60;;
14306;SDS011;7237;49.500;11.400;2023-06-22T13:15:15;13.88;;;4.95;;
14306;SDS011;7237;49.500;11.400;2023-06-22T13:17:42;10.15;;;4.57;;
14306;SDS011;7237;49.500;11.400;2023-06-22T13:20:09;9.60;;;4.15;;
14306;SDS011;7237;49.500;11.400;2023-06-22T13:22:36;13.50;;;4.88;;
14306;SDS011;7237;49.500;11.400;2023-06-22T13:25:07;8.30;;;4.25;;
14306;SDS011;7237;49.500;11.400;2023-06-22T13:27:37;12.38;;;4.88;;
14306;SDS011;7237;49.500;11.400;2023-06-22T13:30:06;10.65;;;4.57;;
14306;SDS011;7237;49.500;11.400;2023-06-22T13:32:33;11.93;;;4.70;;
14306;SDS011;7237;49.500;11.400;2023-06-22T13:35:00;10.60;;;5.00;;
14306;SDS011;7237;49.500;11.400;2023-06-22T13:37:27;10.57;;;4.97;;
14306;SDS011;7237;49.500;11.400;2023-06-22T13:39:54;9.30;;;4.53;;
14306;SDS011;7237;49.500;11.400;2023-06-22T13:42:24;8.35;;;4.50;;
14306;SDS011;7237;49.500;11.400;2023-06-22T13:44:51;12.73;;;4.85;;
14306;SDS011;7237;49.500;11.400;2023-06-22T13:47:19;6.40;;;4.22;;
14306;SDS011;7237;49.500;11.400;2023-06-22T13:49:46;9.20;;;4.53;;
14306;SDS011;7237;49.500;11.400;2023-06-22T13:52:13;10.25;;;4.22;;
14306;SDS011;7237;49.500;11.400;2023-06-22T13:54:40;11.98;;;4.47;;
14306;SDS011;7237;49.500;11.400;2023-06-22T13:57:08;11.80;;;4.28;;
14306;SDS011;7237;49.500;11.400;2023-06-22T13:59:35;7.18;;;4.22;;
14306;SDS011;7237;49.500;11.400;2023-06-22T14:02:02;15.93;;;4.72;;
14306;SDS011;7237;49.500;11.400;2023-06-22T14:04:30;8.63;;;4.55;;
14306;SDS011;7237;49.500;11.400;2023-06-22T14:06:57;11.52;;;4.65;;
14306;SDS011;7237;49.500;11.400;2023-06-22T14:09:24;9.45;;;4.40;;
14306;SDS011;7237;49.500;11.400;2023-06-22T14:11:53;21.00;;;5.00;;
14306;SDS011;7237;49.500;11.400;2023-06-22T14:14:21;7.63;;;4.68;;
14306;SDS011;7237;49.500;11.400;2023-06-22T14:16:48;11.57;;;4.18;;
14306;SDS011;7237;49.500;11.400;2023-06-22T14:19:16;13.30;;;5.07;;
14306;SDS011;7237;49.500;11.400;2023-06-22T14:21:44;12.75;;;4.68;;
14306;SDS011;7237;49.500;11.400;2023-06-22T14:24:11;8.52;;;4.60;;
14306;SDS011;7237;49.500;11.400;2023-06-22T14:26:38;8.82;;;4.20;;
14306;SDS011;7237;49.500;11.400;2023-06-22T14:29:05;10.10;;;4.75;;
14306;SDS011;7237;49.500;11.400;2023-06-22T14:31:32;14.68;;;4.72;;
14306;SDS011;7237;49.500;11.400;2023-06-22T14:33:59;13.60;;;5.25;;
14306;SDS011;7237;49.500;11.400;2023-06-22T14:36:27;10.25;;;4.85;;
14306;SDS011;7237;49.500;11.400;2023-06-22T14:38:56;11.25;;;4.40;;
14306;SDS011;7237;49.500;11.400;2023-06-22T14:41:23;10.50;;;5.00;;
14306;SDS011;7237;49.500;11.400;2023-06-22T14:43:50;11.18;;;4.75;;
14306;SDS011;7237;49.500;11.400;2023-06-22T14:46:17;9.95;;;4.32;;